Loomis, Washington
Current Conditions -  °F | °C
As of 6:53 PM on Sunday 23 Nov 2014 (Local Time) from KOMK Reporting Station
Clear Clear  
Wind Chill: 28°   Ceiling: Unl
Heat Index: 34°   Visibility: 10mi
Dew Point: 29°   Wind: 7mph
Humidity: 82%   Direction: 280°W
Pressure: 30.07"   Gusts: NA
Location:  48.82°N, 119.64°W
Report Text: KOMK 240253Z AUTO 28006KT 10SM CLR 01/M02 A3007 RMK AO2 SLP197 T00111017 51025
Loading
Personal Weather Stations






























Interactive Weather Map New forecast layout! Learn more

10-Day Weather Forecast

Advertisements
Track Severe Weather on mobile